Time;durP1;ratioP1;P1;durP2;ratioP2;P2;SDS_P1;SDS_P2;PMS_P1;PMS_P2;Temp;Humidity;BMP_temperature;BMP_pressure;BME280_temperature;BME280_humidity;BME280_pressure;Samples;Min_cycle;Max_cycle;Signal;HPM_P1;HPM_P2
2023/03/26 00:01:15;;;;;;;4.70;3.38;;;;;;;;;;5039367;28;20132;-78
2023/03/26 00:03:52;;;;;;;3.75;3.00;;;;;;;;;;5039161;28;20080;-79
2023/03/26 00:06:23;;;;;;;3.05;2.85;;;;;;;;;;5041949;28;20048;-78
2023/03/26 00:08:52;;;;;;;4.78;2.75;;;;;;;;;;5041667;28;20087;-83
2023/03/26 00:11:20;;;;;;;5.97;2.80;;;;;;;;;;5041153;28;20582;-79
2023/03/26 00:13:48;;;;;;;3.05;2.28;;;;;;;;;;5034429;28;20075;-78
2023/03/26 00:16:17;;;;;;;3.70;2.20;;;;;;;;;;5045935;28;20052;-80
2023/03/26 00:18:45;;;;;;;6.07;3.33;;;;;;;;;;5039339;28;20517;-79
2023/03/26 00:21:13;;;;;;;7.82;3.55;;;;;;;;;;5037644;28;20059;-78
2023/03/26 00:23:41;;;;;;;5.32;2.80;;;;;;;;;;5040246;28;20506;-78
2023/03/26 00:26:09;;;;;;;4.70;2.70;;;;;;;;;;5037838;28;20044;-80
2023/03/26 00:28:39;;;;;;;6.97;2.35;;;;;;;;;;5039139;28;20041;-78
2023/03/26 00:31:08;;;;;;;4.28;2.50;;;;;;;;;;5039031;28;20476;-78
2023/03/26 00:33:37;;;;;;;6.75;3.00;;;;;;;;;;5020826;28;20048;-78
2023/03/26 00:36:05;;;;;;;4.93;3.10;;;;;;;;;;5021371;28;20037;-81
2023/03/26 00:38:37;;;;;;;4.22;2.42;;;;;;;;;;5034971;28;20500;-82
2023/03/26 00:41:06;;;;;;;4.78;2.78;;;;;;;;;;5039600;28;20043;-82
2023/03/26 00:43:35;;;;;;;2.70;2.35;;;;;;;;;;5044400;28;20123;-79
2023/03/26 00:46:02;;;;;;;3.22;1.92;;;;;;;;;;5042354;28;20117;-78
2023/03/26 00:48:30;;;;;;;4.80;2.03;;;;;;;;;;5039787;28;20411;-79
2023/03/26 00:51:14;;;;;;;3.20;1.52;;;;;;;;;;5041591;28;20047;-80
2023/03/26 00:53:43;;;;;;;2.80;1.38;;;;;;;;;;5029378;28;20045;-81
2023/03/26 00:56:10;;;;;;;6.03;1.58;;;;;;;;;;5042837;28;20074;-78
2023/03/26 00:58:38;;;;;;;2.75;1.63;;;;;;;;;;5040060;28;20073;-79
2023/03/26 01:01:08;;;;;;;4.50;1.70;;;;;;;;;;5024460;28;20048;-80
2023/03/26 01:03:37;;;;;;;5.13;1.80;;;;;;;;;;5033054;28;20049;-80
2023/03/26 01:06:12;;;;;;;3.25;1.48;;;;;;;;;;5022955;28;20099;-78
2023/03/26 01:08:41;;;;;;;4.03;1.00;;;;;;;;;;5024865;28;20042;-80
2023/03/26 01:11:12;;;;;;;3.60;1.20;;;;;;;;;;5041794;28;20045;-81
2023/03/26 01:13:48;;;;;;;3.80;1.27;;;;;;;;;;5037752;28;20106;-82
2023/03/26 01:16:22;;;;;;;3.50;1.50;;;;;;;;;;5043365;28;20068;-78
2023/03/26 01:18:51;;;;;;;2.38;1.30;;;;;;;;;;5044359;28;20384;-78
2023/03/26 01:21:21;;;;;;;8.50;1.50;;;;;;;;;;5035105;28;20063;-79
2023/03/26 01:23:56;;;;;;;5.55;1.73;;;;;;;;;;5037356;28;20051;-79
2023/03/26 01:26:27;;;;;;;4.15;1.45;;;;;;;;;;5026065;28;20049;-77
2023/03/26 01:28:56;;;;;;;3.10;1.00;;;;;;;;;;5033970;28;20119;-77
2023/03/26 01:31:29;;;;;;;4.30;2.10;;;;;;;;;;5035821;28;20123;-78
2023/03/26 01:34:03;;;;;;;4.05;1.73;;;;;;;;;;5035505;28;20103;-81
2023/03/26 01:36:34;;;;;;;1.92;1.35;;;;;;;;;;5032968;28;20056;-78
2023/03/26 01:39:04;;;;;;;3.53;1.30;;;;;;;;;;5035074;28;20132;-84
2023/03/26 01:41:37;;;;;;;2.40;1.23;;;;;;;;;;5044566;28;20079;-82
2023/03/26 01:44:07;;;;;;;2.50;1.45;;;;;;;;;;5041496;28;20364;-79
2023/03/26 01:46:35;;;;;;;6.95;1.75;;;;;;;;;;5035879;28;20140;-79
2023/03/26 01:49:04;;;;;;;5.80;1.80;;;;;;;;;;5030243;28;20041;-78
2023/03/26 01:51:35;;;;;;;3.58;1.27;;;;;;;;;;5038433;28;20037;-78
2023/03/26 01:54:03;;;;;;;2.28;1.38;;;;;;;;;;5019311;28;20063;-80
2023/03/26 01:56:37;;;;;;;1.42;1.00;;;;;;;;;;5036198;28;20560;-77
2023/03/26 01:59:15;;;;;;;3.35;1.23;;;;;;;;;;5037632;28;20410;-78
2023/03/26 02:01:59;;;;;;;1.00;1.00;;;;;;;;;;5016290;28;20126;-81
2023/03/26 02:04:44;;;;;;;2.95;1.10;;;;;;;;;;5036655;28;20037;-78
2023/03/26 02:07:19;;;;;;;4.40;1.05;;;;;;;;;;5038747;28;20040;-80
2023/03/26 02:09:49;;;;;;;3.63;1.10;;;;;;;;;;5038430;28;20056;-83
2023/03/26 02:12:17;;;;;;;1.02;0.75;;;;;;;;;;5025792;28;20675;-78
2023/03/26 02:14:45;;;;;;;5.60;0.95;;;;;;;;;;5020586;28;20098;-78
2023/03/26 02:17:12;;;;;;;3.08;1.13;;;;;;;;;;5035381;28;20088;-78
2023/03/26 02:19:41;;;;;;;0.90;0.90;;;;;;;;;;5032401;28;20123;-79
2023/03/26 02:22:10;;;;;;;6.45;1.17;;;;;;;;;;5023046;28;20048;-78
2023/03/26 02:24:38;;;;;;;3.90;1.02;;;;;;;;;;5022558;28;20047;-81
2023/03/26 02:27:06;;;;;;;2.40;0.90;;;;;;;;;;5031633;28;20041;-79
2023/03/26 02:29:36;;;;;;;2.17;1.17;;;;;;;;;;5020519;28;20106;-80
2023/03/26 02:32:11;;;;;;;4.68;1.15;;;;;;;;;;5017567;28;20455;-80
2023/03/26 02:34:39;;;;;;;3.25;1.00;;;;;;;;;;5030616;28;20472;-78
2023/03/26 02:37:07;;;;;;;6.43;1.08;;;;;;;;;;5039257;28;20059;-79
2023/03/26 02:39:35;;;;;;;1.92;0.95;;;;;;;;;;5030178;28;20045;-79
2023/03/26 02:42:11;;;;;;;5.45;1.17;;;;;;;;;;5018643;28;20088;-80
2023/03/26 02:44:45;;;;;;;2.25;0.85;;;;;;;;;;5019560;28;20042;-80
2023/03/26 02:47:32;;;;;;;1.85;0.88;;;;;;;;;;5039623;28;20369;-79
2023/03/26 02:50:18;;;;;;;10.93;1.13;;;;;;;;;;5039101;28;20069;-79
2023/03/26 02:53:08;;;;;;;2.92;0.77;;;;;;;;;;5023334;28;20043;-79
2023/03/26 02:55:39;;;;;;;4.82;0.95;;;;;;;;;;5020835;28;20499;-78
2023/03/26 02:58:06;;;;;;;5.30;1.58;;;;;;;;;;5021877;28;20063;-80
2023/03/26 03:00:37;;;;;;;5.60;1.13;;;;;;;;;;5034518;28;20510;-82
2023/03/26 03:03:08;;;;;;;1.58;0.93;;;;;;;;;;5036827;28;20499;-81
2023/03/26 03:05:55;;;;;;;3.72;1.13;;;;;;;;;;5039303;28;20048;-79
2023/03/26 03:08:49;;;;;;;7.35;1.33;;;;;;;;;;5033647;28;20132;-80
2023/03/26 03:11:20;;;;;;;4.40;1.15;;;;;;;;;;5040713;28;20041;-81
2023/03/26 03:13:49;;;;;;;2.97;1.20;;;;;;;;;;5024933;28;20055;-81
2023/03/26 03:16:25;;;;;;;5.45;4.95;;;;;;;;;;5018551;28;20052;-79
2023/03/26 03:18:55;;;;;;;4.50;1.20;;;;;;;;;;5035328;28;20042;-79
2023/03/26 03:21:30;;;;;;;3.33;1.23;;;;;;;;;;5021591;28;20144;-78
2023/03/26 03:23:57;;;;;;;4.97;1.33;;;;;;;;;;5019328;28;20049;-79
2023/03/26 03:26:30;;;;;;;1.92;1.10;;;;;;;;;;5036785;28;20041;-78
2023/03/26 03:29:03;;;;;;;4.45;1.30;;;;;;;;;;5024375;28;20099;-81
2023/03/26 03:31:30;;;;;;;2.35;1.10;;;;;;;;;;5041471;28;20444;-78
2023/03/26 03:34:03;;;;;;;1.02;1.02;;;;;;;;;;5039000;28;20554;-78
2023/03/26 03:36:37;;;;;;;3.70;1.38;;;;;;;;;;5025860;28;20048;-78
2023/03/26 03:39:19;;;;;;;1.75;1.02;;;;;;;;;;5044163;28;20080;-80
2023/03/26 03:41:48;;;;;;;1.85;1.20;;;;;;;;;;5024331;28;20132;-78
2023/03/26 03:44:16;;;;;;;2.08;1.00;;;;;;;;;;5020624;28;20199;-81
2023/03/26 03:46:44;;;;;;;3.03;0.98;;;;;;;;;;5023010;28;20132;-81
2023/03/26 03:49:12;;;;;;;6.82;2.90;;;;;;;;;;5029303;28;20090;-82
2023/03/26 03:51:41;;;;;;;3.10;1.40;;;;;;;;;;5023302;28;20047;-80
2023/03/26 03:54:17;;;;;;;3.13;0.90;;;;;;;;;;5013878;28;20108;-78
2023/03/26 03:56:46;;;;;;;2.90;1.10;;;;;;;;;;5039218;28;20132;-81
2023/03/26 03:59:30;;;;;;;4.07;1.13;;;;;;;;;;5041258;28;20123;-78
2023/03/26 04:01:58;;;;;;;1.95;1.10;;;;;;;;;;5024405;28;20419;-78
2023/03/26 04:04:33;;;;;;;1.30;1.10;;;;;;;;;;5020064;28;20037;-79
2023/03/26 04:07:04;;;;;;;6.90;1.27;;;;;;;;;;5041644;28;20069;-81
2023/03/26 04:09:49;;;;;;;2.95;1.23;;;;;;;;;;5034947;28;20037;-80
2023/03/26 04:12:18;;;;;;;8.90;1.23;;;;;;;;;;5033771;28;20556;-78
2023/03/26 04:14:58;;;;;;;3.33;1.20;;;;;;;;;;5022434;28;20051;-78
2023/03/26 04:17:29;;;;;;;5.88;1.10;;;;;;;;;;5021636;28;20070;-79
2023/03/26 04:19:56;;;;;;;2.25;1.00;;;;;;;;;;5029856;28;20080;-81
2023/03/26 04:22:33;;;;;;;3.83;1.15;;;;;;;;;;5045156;28;20418;-82
2023/03/26 04:25:06;;;;;;;1.20;0.95;;;;;;;;;;5022003;28;20088;-80
2023/03/26 04:27:45;;;;;;;2.75;1.10;;;;;;;;;;5017840;28;20515;-79
2023/03/26 04:30:41;;;;;;;2.55;1.10;;;;;;;;;;5031207;28;20131;-82
2023/03/26 04:33:24;;;;;;;1.98;1.08;;;;;;;;;;5020836;28;20426;-79
2023/03/26 04:35:53;;;;;;;3.78;1.30;;;;;;;;;;5017720;28;20450;-78
2023/03/26 04:38:21;;;;;;;2.50;1.13;;;;;;;;;;5020538;28;20446;-79
2023/03/26 04:40:51;;;;;;;1.88;1.20;;;;;;;;;;5025358;28;20052;-81
2023/03/26 04:43:35;;;;;;;2.60;1.15;;;;;;;;;;5033399;28;20132;-79
2023/03/26 04:46:25;;;;;;;1.80;1.10;;;;;;;;;;5049453;28;20131;-79
2023/03/26 04:49:03;;;;;;;2.75;1.20;;;;;;;;;;5023725;28;20576;-79
2023/03/26 04:51:37;;;;;;;7.22;1.52;;;;;;;;;;5029280;28;20054;-78
2023/03/26 04:54:14;;;;;;;2.78;1.30;;;;;;;;;;5041259;28;20048;-78
2023/03/26 04:56:58;;;;;;;4.72;1.58;;;;;;;;;;5037014;28;20790;-81
2023/03/26 04:59:47;;;;;;;5.70;1.33;;;;;;;;;;5019915;23;20388;31
2023/03/26 05:02:17;;;;;;;5.07;1.35;;;;;;;;;;4988902;28;20140;-84
2023/03/26 05:04:51;;;;;;;2.83;1.10;;;;;;;;;;4992615;28;20038;-83
2023/03/26 05:07:21;;;;;;;3.42;1.27;;;;;;;;;;4992885;28;20060;-84
2023/03/26 05:09:52;;;;;;;4.72;1.52;;;;;;;;;;4992454;28;20042;-83
2023/03/26 05:12:30;;;;;;;3.10;1.42;;;;;;;;;;5001009;28;20048;-84
2023/03/26 05:15:10;;;;;;;3.75;1.38;;;;;;;;;;5010111;28;20526;-84
2023/03/26 05:17:59;;;;;;;1.30;1.20;;;;;;;;;;4998295;28;20046;-84
2023/03/26 05:20:46;;;;;;;6.57;1.63;;;;;;;;;;5001234;28;20053;-83
2023/03/26 05:23:14;;;;;;;3.10;1.30;;;;;;;;;;5002614;28;20490;-84
2023/03/26 05:25:45;;;;;;;5.70;1.42;;;;;;;;;;5007819;28;20053;-84
2023/03/26 05:28:19;;;;;;;3.47;1.67;;;;;;;;;;5019108;28;20072;-83
2023/03/26 05:30:55;;;;;;;4.38;2.10;;;;;;;;;;5012551;28;20072;-83
2023/03/26 05:33:25;;;;;;;6.07;2.10;;;;;;;;;;5002199;28;20137;-84
2023/03/26 05:36:04;;;;;;;3.33;2.22;;;;;;;;;;4996097;28;20041;-84
2023/03/26 05:38:32;;;;;;;6.63;1.80;;;;;;;;;;4994377;28;20306;-84
2023/03/26 05:41:10;;;;;;;2.47;1.70;;;;;;;;;;5016756;28;20046;-83
2023/03/26 05:43:42;;;;;;;5.07;1.73;;;;;;;;;;4994453;28;20522;-83
2023/03/26 05:46:13;;;;;;;5.78;1.70;;;;;;;;;;5000599;28;20523;-84
2023/03/26 05:48:40;;;;;;;3.38;2.13;;;;;;;;;;5000931;28;20038;-82
2023/03/26 05:51:08;;;;;;;6.00;2.50;;;;;;;;;;5027462;28;20050;-83
2023/03/26 05:53:40;;;;;;;4.20;2.20;;;;;;;;;;5004822;28;20054;-85
2023/03/26 05:56:20;;;;;;;2.15;1.90;;;;;;;;;;5023311;28;20127;-83
2023/03/26 05:59:16;;;;;;;3.95;2.03;;;;;;;;;;5023278;28;20053;-83
2023/03/26 06:02:12;;;;;;;7.20;1.77;;;;;;;;;;5034780;28;20056;-84
2023/03/26 06:04:58;;;;;;;4.72;1.85;;;;;;;;;;5043246;28;20045;-85
2023/03/26 06:07:50;;;;;;;3.58;2.30;;;;;;;;;;5011175;28;20042;-83
2023/03/26 06:10:19;;;;;;;3.45;1.58;;;;;;;;;;5013635;28;20049;-84
2023/03/26 06:12:46;;;;;;;8.77;1.80;;;;;;;;;;5010502;28;20084;-83
2023/03/26 06:15:14;;;;;;;4.78;1.80;;;;;;;;;;5021515;28;20054;-84
2023/03/26 06:18:01;;;;;;;3.28;1.75;;;;;;;;;;5010311;28;20045;-85
2023/03/26 06:20:32;;;;;;;4.28;1.45;;;;;;;;;;5039211;28;20033;-84
2023/03/26 06:23:03;;;;;;;4.53;1.80;;;;;;;;;;5023001;28;20056;-84
2023/03/26 06:26:04;;;;;;;4.30;1.70;;;;;;;;;;4994403;28;20057;-85
2023/03/26 06:28:50;;;;;;;11.68;2.97;;;;;;;;;;5039224;28;20073;-85
2023/03/26 06:31:30;;;;;;;5.90;1.90;;;;;;;;;;5010591;28;20414;-83
2023/03/26 06:34:12;;;;;;;3.75;1.88;;;;;;;;;;5002560;28;20694;-84
2023/03/26 06:36:40;;;;;;;2.47;1.42;;;;;;;;;;5007075;28;20037;-84
2023/03/26 06:39:08;;;;;;;3.65;1.48;;;;;;;;;;4995996;28;20565;-84
2023/03/26 06:41:40;;;;;;;4.97;1.90;;;;;;;;;;5009244;28;20049;-85
2023/03/26 06:44:15;;;;;;;3.45;1.88;;;;;;;;;;5008217;28;20045;-84
2023/03/26 06:47:15;;;;;;;3.95;1.45;;;;;;;;;;5019185;28;20136;-82
2023/03/26 06:50:01;;;;;;;3.83;1.85;;;;;;;;;;5012963;28;20056;-84
2023/03/26 06:52:55;;;;;;;6.22;1.92;;;;;;;;;;5014908;28;20061;-84
2023/03/26 06:55:36;;;;;;;2.15;1.23;;;;;;;;;;5011877;28;20458;-83
2023/03/26 06:58:34;;;;;;;4.70;1.50;;;;;;;;;;5007656;28;20050;-82
2023/03/26 07:01:19;;;;;;;3.00;1.40;;;;;;;;;;5026447;28;20472;-83
2023/03/26 07:04:06;;;;;;;3.75;1.65;;;;;;;;;;5026529;28;20067;-82
2023/03/26 07:06:54;;;;;;;5.15;1.70;;;;;;;;;;4994730;28;20038;-82
2023/03/26 07:09:56;;;;;;;4.47;1.77;;;;;;;;;;5002687;28;20046;-84
2023/03/26 07:12:42;;;;;;;6.85;2.35;;;;;;;;;;5027843;28;20060;-82
2023/03/26 07:15:39;;;;;;;2.22;2.00;;;;;;;;;;5024729;28;20069;-83
2023/03/26 07:18:22;;;;;;;6.28;2.35;;;;;;;;;;5011794;28;20069;-83
2023/03/26 07:20:51;;;;;;;7.03;2.33;;;;;;;;;;5007509;28;20038;-82
2023/03/26 07:23:20;;;;;;;3.65;2.15;;;;;;;;;;5012235;28;20077;-81
2023/03/26 07:25:56;;;;;;;5.40;2.40;;;;;;;;;;5005420;28;20125;-84
2023/03/26 07:28:47;;;;;;;7.50;2.53;;;;;;;;;;5013508;28;20230;-80
2023/03/26 07:31:59;;;;;;;3.33;1.88;;;;;;;;;;5018160;28;20026;-86
2023/03/26 07:34:48;;;;;;;4.53;1.63;;;;;;;;;;5025608;28;20049;-82
2023/03/26 07:38:04;;;;;;;3.88;1.40;;;;;;;;;;5009136;28;20124;-83
2023/03/26 07:41:00;;;;;;;5.00;1.60;;;;;;;;;;5003446;28;20430;-83
2023/03/26 07:43:52;;;;;;;2.85;1.38;;;;;;;;;;5027476;28;20052;-83
2023/03/26 07:46:40;;;;;;;3.80;1.38;;;;;;;;;;5022312;28;20041;-84
2023/03/26 07:49:21;;;;;;;5.05;1.85;;;;;;;;;;5008980;28;20050;-84
2023/03/26 07:52:04;;;;;;;4.55;1.33;;;;;;;;;;5003964;28;20038;-81
2023/03/26 07:54:55;;;;;;;5.00;1.52;;;;;;;;;;5002430;28;20077;-83
2023/03/26 07:57:43;;;;;;;6.07;1.75;;;;;;;;;;5018473;28;20046;-83
2023/03/26 08:00:41;;;;;;;1.75;1.27;;;;;;;;;;5012357;28;20515;-82
2023/03/26 08:03:32;;;;;;;5.78;1.40;;;;;;;;;;5011411;28;20037;-82
2023/03/26 08:06:39;;;;;;;5.80;3.78;;;;;;;;;;4975035;28;20119;-86
2023/03/26 08:09:37;;;;;;;2.20;1.48;;;;;;;;;;4989605;28;20042;-84
2023/03/26 08:12:26;;;;;;;6.45;1.77;;;;;;;;;;5014569;28;20779;-82
2023/03/26 08:15:01;;;;;;;2.45;1.50;;;;;;;;;;5017126;28;20511;-83
2023/03/26 08:17:34;;;;;;;3.80;1.35;;;;;;;;;;5005699;28;20046;-83
2023/03/26 08:20:18;;;;;;;4.53;1.17;;;;;;;;;;5029050;28;20056;-83
2023/03/26 08:22:50;;;;;;;4.35;1.40;;;;;;;;;;5014104;28;20054;-83
2023/03/26 08:25:33;;;;;;;3.85;1.17;;;;;;;;;;5026837;28;20136;-84
2023/03/26 08:28:17;;;;;;;4.65;1.40;;;;;;;;;;5026803;28;20046;-84
2023/03/26 08:30:45;;;;;;;3.17;1.50;;;;;;;;;;5031261;28;20072;-84
2023/03/26 08:33:15;;;;;;;4.97;1.52;;;;;;;;;;5030635;28;20053;-85
2023/03/26 08:35:43;;;;;;;5.00;1.15;;;;;;;;;;5026283;28;20045;-82
2023/03/26 08:38:12;;;;;;;8.50;1.60;;;;;;;;;;5033533;28;20055;-83
2023/03/26 08:40:59;;;;;;;3.15;1.20;;;;;;;;;;5021735;28;20057;-82
2023/03/26 08:43:35;;;;;;;3.50;1.00;;;;;;;;;;5021005;28;20077;-83
2023/03/26 08:46:06;;;;;;;8.45;1.70;;;;;;;;;;5020978;28;20042;-82
2023/03/26 08:49:00;;;;;;;9.20;1.73;;;;;;;;;;5003461;28;20052;-81
2023/03/26 08:51:46;;;;;;;3.20;1.23;;;;;;;;;;5021853;28;20113;-82
2023/03/26 08:54:47;;;;;;;4.75;1.35;;;;;;;;;;5015576;28;20049;-82
2023/03/26 08:57:24;;;;;;;2.50;2.17;;;;;;;;;;5000241;28;20466;-83
2023/03/26 09:00:12;;;;;;;5.47;1.55;;;;;;;;;;5033304;28;20054;-83
2023/03/26 09:02:42;;;;;;;4.53;2.67;;;;;;;;;;5028714;28;20056;-82
2023/03/26 09:05:29;;;;;;;5.78;2.30;;;;;;;;;;5033802;28;20050;-82
2023/03/26 09:08:10;;;;;;;4.82;2.35;;;;;;;;;;5034823;28;20068;-82
2023/03/26 09:10:38;;;;;;;5.63;2.10;;;;;;;;;;5037873;28;20049;-82
2023/03/26 09:13:05;;;;;;;5.32;1.80;;;;;;;;;;5037904;28;20053;-85
2023/03/26 09:15:51;;;;;;;4.25;1.58;;;;;;;;;;5035037;28;20073;-84
2023/03/26 09:18:29;;;;;;;5.65;1.65;;;;;;;;;;5034104;28;20151;-82
2023/03/26 09:21:11;;;;;;;3.38;1.17;;;;;;;;;;5038300;28;20053;-84
2023/03/26 09:23:39;;;;;;;;;;;;;;;;;;5035421;28;20042;-83
2023/03/26 09:26:09;;;;;;;5.10;1.35;;;;;;;;;;5032430;28;19921;-83
2023/03/26 09:28:55;;;;;;;3.13;1.30;;;;;;;;;;5018042;28;20054;-82
2023/03/26 09:31:41;;;;;;;2.97;1.48;;;;;;;;;;5031754;28;20298;-83
2023/03/26 09:34:18;;;;;;;7.00;1.45;;;;;;;;;;5024287;28;20572;-83
2023/03/26 09:36:45;;;;;;;4.57;1.45;;;;;;;;;;5006691;28;20744;-84
2023/03/26 09:39:20;;;;;;;6.25;1.40;;;;;;;;;;5006534;28;20049;-83
2023/03/26 09:42:14;;;;;;;5.95;1.55;;;;;;;;;;5025562;28;20083;-83
2023/03/26 09:44:53;;;;;;;5.20;1.45;;;;;;;;;;5024533;28;20054;-82
2023/03/26 09:47:26;;;;;;;3.33;1.30;;;;;;;;;;5027746;28;20045;-82
2023/03/26 09:49:57;;;;;;;7.05;1.23;;;;;;;;;;5008636;28;20042;-84
2023/03/26 09:52:43;;;;;;;4.15;1.45;;;;;;;;;;5005532;28;20771;-82
2023/03/26 09:55:38;;;;;;;4.85;1.52;;;;;;;;;;5006893;28;20979;-83
2023/03/26 09:58:06;;;;;;;3.15;1.42;;;;;;;;;;5028360;28;20480;-84
2023/03/26 10:00:52;;;;;;;4.20;1.60;;;;;;;;;;5024487;28;20037;-83
2023/03/26 10:03:40;;;;;;;1.58;1.00;;;;;;;;;;5024476;28;20073;-83
2023/03/26 10:06:13;;;;;;;3.80;1.27;;;;;;;;;;5007734;28;20046;-87
2023/03/26 10:08:40;;;;;;;4.25;1.48;;;;;;;;;;5004517;28;20042;-83
2023/03/26 10:11:17;;;;;;;4.78;1.30;;;;;;;;;;5028936;28;20064;-84
2023/03/26 10:14:02;;;;;;;2.47;1.10;;;;;;;;;;5004646;28;20042;-85
2023/03/26 10:16:58;;;;;;;2.65;1.25;;;;;;;;;;5036599;28;20057;-84
2023/03/26 10:19:45;;;;;;;6.05;1.17;;;;;;;;;;5016461;28;20068;-84
2023/03/26 10:22:36;;;;;;;5.90;1.27;;;;;;;;;;5011051;28;20458;-82
2023/03/26 10:25:21;;;;;;;5.75;1.85;;;;;;;;;;5029980;28;20056;-84
2023/03/26 10:27:59;;;;;;;4.07;1.13;;;;;;;;;;5027770;28;20100;-86
2023/03/26 10:30:47;;;;;;;7.72;1.70;;;;;;;;;;5014499;28;20085;-86
2023/03/26 10:33:28;;;;;;;7.25;1.23;;;;;;;;;;5024936;28;20107;-84
2023/03/26 10:36:28;;;;;;;4.05;1.48;;;;;;;;;;5029399;28;20068;-84
2023/03/26 10:38:58;;;;;;;5.28;1.40;;;;;;;;;;5027550;28;20180;-84
2023/03/26 10:41:38;;;;;;;5.38;1.35;;;;;;;;;;5011731;28;20068;-86
2023/03/26 10:44:09;;;;;;;6.47;1.65;;;;;;;;;;5004736;28;20053;-82
2023/03/26 10:46:55;;;;;;;6.60;1.42;;;;;;;;;;5019203;28;20054;-83
2023/03/26 10:49:41;;;;;;;6.70;1.60;;;;;;;;;;5034451;28;20049;-83
2023/03/26 10:52:14;;;;;;;5.00;1.38;;;;;;;;;;5029341;28;20049;-82
2023/03/26 10:55:02;;;;;;;1.65;0.95;;;;;;;;;;5035419;28;20608;-84
2023/03/26 10:57:34;;;;;;;3.70;1.25;;;;;;;;;;5015237;28;20121;-86
2023/03/26 11:03:04;;;;;;;4.97;1.90;;;;;;;;;;4953641;28;20519;-78
2023/03/26 11:05:47;;;;;;;8.00;1.55;;;;;;;;;;4999205;28;20130;-78
2023/03/26 11:08:29;;;;;;;5.82;1.52;;;;;;;;;;5000151;28;20131;-78
2023/03/26 11:11:04;;;;;;;3.30;1.70;;;;;;;;;;4999919;28;20057;-78
2023/03/26 11:13:36;;;;;;;4.60;1.30;;;;;;;;;;4971592;28;20050;-78
2023/03/26 11:16:05;;;;;;;4.05;1.38;;;;;;;;;;4981119;28;20050;-78
2023/03/26 11:18:51;;;;;;;9.50;1.50;;;;;;;;;;4980675;28;20461;-80
2023/03/26 11:21:34;;;;;;;7.00;1.65;;;;;;;;;;4980239;28;20125;-78
2023/03/26 11:24:23;;;;;;;8.05;1.80;;;;;;;;;;4979135;28;20061;-81
2023/03/26 11:26:54;;;;;;;5.22;1.77;;;;;;;;;;4979204;28;20121;-81
2023/03/26 11:29:32;;;;;;;5.60;1.60;;;;;;;;;;4980436;28;20044;-81
2023/03/26 11:32:10;;;;;;;8.25;2.00;;;;;;;;;;4965304;28;20054;-79
2023/03/26 11:34:41;;;;;;;5.47;1.50;;;;;;;;;;4965251;28;20101;-78
2023/03/26 11:37:19;;;;;;;6.10;1.55;;;;;;;;;;4961622;28;20134;-79
2023/03/26 11:39:50;;;;;;;4.88;1.60;;;;;;;;;;4974340;28;20137;-81
2023/03/26 11:42:21;;;;;;;4.93;1.60;;;;;;;;;;4982508;28;20048;-79
2023/03/26 11:44:52;;;;;;;9.13;2.15;;;;;;;;;;4981845;28;20981;-80
2023/03/26 11:47:22;;;;;;;5.97;2.47;;;;;;;;;;4978771;28;20055;-78
2023/03/26 11:49:52;;;;;;;5.15;1.90;;;;;;;;;;4983819;28;20046;-80
2023/03/26 11:52:20;;;;;;;3.83;2.20;;;;;;;;;;4987220;28;20072;-79
2023/03/26 11:54:49;;;;;;;5.57;2.22;;;;;;;;;;4989270;28;20042;-78
2023/03/26 11:57:22;;;;;;;4.30;2.13;;;;;;;;;;4987025;28;20915;-80
2023/03/26 12:00:15;;;;;;;6.65;2.05;;;;;;;;;;4989125;28;20467;-78
2023/03/26 12:02:43;;;;;;;4.85;1.73;;;;;;;;;;4980857;28;20117;-79
2023/03/26 12:05:11;;;;;;;5.38;2.00;;;;;;;;;;4969340;28;20045;-79
2023/03/26 12:07:44;;;;;;;4.07;1.67;;;;;;;;;;4984564;28;20038;-78
2023/03/26 12:10:21;;;;;;;5.53;2.00;;;;;;;;;;4983977;28;20046;-82
2023/03/26 12:12:53;;;;;;;4.50;1.73;;;;;;;;;;4986547;28;20050;-79
2023/03/26 12:15:21;;;;;;;5.50;1.65;;;;;;;;;;4986176;28;20073;-78
2023/03/26 12:17:55;;;;;;;3.53;1.48;;;;;;;;;;4985887;28;20307;-78
2023/03/26 12:20:25;;;;;;;7.50;1.70;;;;;;;;;;4985458;28;20128;-79
2023/03/26 12:22:58;;;;;;;3.25;1.55;;;;;;;;;;4967632;28;20516;-80
2023/03/26 12:25:29;;;;;;;4.07;1.65;;;;;;;;;;4982846;28;20100;-78
2023/03/26 12:28:01;;;;;;;4.07;1.70;;;;;;;;;;4985088;28;20053;-79
2023/03/26 12:30:32;;;;;;;2.40;2.00;;;;;;;;;;4982765;28;20054;-78
2023/03/26 12:33:02;;;;;;;3.95;2.72;;;;;;;;;;4981950;28;20050;-81
2023/03/26 12:35:33;;;;;;;8.23;4.38;;;;;;;;;;4982373;28;20078;-79
2023/03/26 12:38:13;;;;;;;7.10;3.00;;;;;;;;;;4985483;28;20050;-78
2023/03/26 12:40:42;;;;;;;3.67;2.33;;;;;;;;;;4987049;28;20089;-79
2023/03/26 12:43:30;;;;;;;6.07;3.03;;;;;;;;;;4969721;28;20058;-79
2023/03/26 12:46:31;;;;;;;6.05;2.30;;;;;;;;;;4987752;28;20049;-79
2023/03/26 12:49:20;;;;;;;5.07;2.17;;;;;;;;;;4988444;28;20069;-81
2023/03/26 12:51:51;;;;;;;5.35;1.98;;;;;;;;;;4988839;28;20074;-78
2023/03/26 12:54:27;;;;;;;5.63;1.80;;;;;;;;;;4978444;28;20046;-78
2023/03/26 12:57:11;;;;;;;3.25;1.70;;;;;;;;;;4970674;28;20519;-79
2023/03/26 12:59:52;;;;;;;6.03;2.08;;;;;;;;;;4981597;28;20407;-79
2023/03/26 13:02:19;;;;;;;6.20;2.20;;;;;;;;;;4986689;28;20113;-81
2023/03/26 13:04:53;;;;;;;5.45;2.13;;;;;;;;;;4973985;28;20070;-79
2023/03/26 13:07:38;;;;;;;4.80;1.60;;;;;;;;;;4969325;28;20113;-78
2023/03/26 13:10:18;;;;;;;4.22;1.75;;;;;;;;;;4969114;28;20054;-81
2023/03/26 13:12:49;;;;;;;2.60;1.27;;;;;;;;;;4969156;28;20704;-79
2023/03/26 13:15:19;;;;;;;3.35;1.83;;;;;;;;;;4968134;28;20043;-79
2023/03/26 13:17:50;;;;;;;4.65;1.60;;;;;;;;;;4968863;28;20043;-78
2023/03/26 13:20:26;;;;;;;4.57;2.00;;;;;;;;;;4977502;28;20057;-78
2023/03/26 13:23:09;;;;;;;2.33;1.60;;;;;;;;;;4985432;28;20081;-78
2023/03/26 13:25:50;;;;;;;8.23;1.92;;;;;;;;;;4969747;28;20496;-80
2023/03/26 13:28:24;;;;;;;5.03;1.70;;;;;;;;;;4985390;28;20412;-78
2023/03/26 13:31:03;;;;;;;5.05;2.13;;;;;;;;;;4982688;28;20042;-78
2023/03/26 13:33:39;;;;;;;3.00;1.70;;;;;;;;;;4986863;28;20181;-78
2023/03/26 13:36:16;;;;;;;1.45;1.10;;;;;;;;;;4986613;28;20394;-81
2023/03/26 13:39:02;;;;;;;2.92;1.30;;;;;;;;;;4987430;28;20046;-79
2023/03/26 13:41:38;;;;;;;4.13;1.40;;;;;;;;;;4986321;28;20046;-80
2023/03/26 13:44:12;;;;;;;1.10;1.00;;;;;;;;;;4986421;28;20053;-79
2023/03/26 13:46:42;;;;;;;5.53;1.20;;;;;;;;;;4987465;28;20046;-81
2023/03/26 13:49:20;;;;;;;3.10;1.35;;;;;;;;;;4986011;28;20052;-81
2023/03/26 13:51:49;;;;;;;3.83;1.58;;;;;;;;;;4986547;28;20042;-79
2023/03/26 13:54:17;;;;;;;6.57;3.83;;;;;;;;;;4985255;28;20046;-79
2023/03/26 13:56:50;;;;;;;4.70;1.88;;;;;;;;;;4986422;28;20543;-79
2023/03/26 13:59:26;;;;;;;3.28;1.75;;;;;;;;;;4986378;28;20057;-79
2023/03/26 14:01:55;;;;;;;3.55;1.08;;;;;;;;;;4986571;28;20066;-80
2023/03/26 14:04:32;;;;;;;2.47;1.50;;;;;;;;;;4987185;28;20046;-78
2023/03/26 14:07:14;;;;;;;2.75;1.00;;;;;;;;;;4985029;28;20069;-78
2023/03/26 14:09:59;;;;;;;3.22;1.70;;;;;;;;;;4988625;28;20050;-78
2023/03/26 14:12:48;;;;;;;3.07;1.57;;;;;;;;;;4978208;28;20516;-78
2023/03/26 14:15:21;;;;;;;3.30;1.55;;;;;;;;;;4978380;28;20104;-79
2023/03/26 14:17:58;;;;;;;3.10;1.50;;;;;;;;;;4986282;28;20096;-81
2023/03/26 14:20:32;;;;;;;3.40;0.90;;;;;;;;;;4985882;28;20058;-78
2023/03/26 14:22:59;;;;;;;2.58;1.17;;;;;;;;;;4983282;28;20053;-80
2023/03/26 14:25:27;;;;;;;2.13;0.93;;;;;;;;;;4982234;28;20428;-79
2023/03/26 14:27:54;;;;;;;2.53;1.00;;;;;;;;;;4976537;28;20501;-79
2023/03/26 14:30:57;;;;;;;2.88;1.15;;;;;;;;;;4982455;28;20059;-80
2023/03/26 14:33:37;;;;;;;1.42;1.30;;;;;;;;;;4901621;29;20108;-78
2023/03/26 14:36:08;;;;;;;3.85;1.52;;;;;;;;;;4967601;28;20079;-81
2023/03/26 14:38:39;;;;;;;3.72;2.00;;;;;;;;;;4977034;28;20050;-79
2023/03/26 14:41:24;;;;;;;1.92;1.30;;;;;;;;;;4979607;28;20050;-79
2023/03/26 14:44:02;;;;;;;2.60;1.27;;;;;;;;;;4981180;28;20042;-79
2023/03/26 14:46:50;;;;;;;1.20;1.10;;;;;;;;;;4961138;28;20048;-80
2023/03/26 14:49:21;;;;;;;1.67;1.40;;;;;;;;;;4977255;28;20461;-79
2023/03/26 14:52:00;;;;;;;52.47;44.08;;;;;;;;;;4975145;28;20039;-79
2023/03/26 14:54:29;;;;;;;1.92;1.10;;;;;;;;;;4986115;28;20174;-79
2023/03/26 14:57:17;;;;;;;2.08;0.95;;;;;;;;;;4959208;28;20035;-79
2023/03/26 15:00:10;;;;;;;2.00;1.10;;;;;;;;;;4979395;28;20445;-81
2023/03/26 15:02:41;;;;;;;3.72;1.13;;;;;;;;;;4986726;28;20419;-79
2023/03/26 15:05:09;;;;;;;1.35;1.10;;;;;;;;;;4982208;28;20046;-78
2023/03/26 15:07:56;;;;;;;3.75;0.98;;;;;;;;;;4973742;28;20051;-79
2023/03/26 15:10:35;;;;;;;3.42;1.10;;;;;;;;;;4968300;28;20746;-79
2023/03/26 15:13:21;;;;;;;4.63;1.08;;;;;;;;;;4971283;28;20057;-80
2023/03/26 15:15:49;;;;;;;1.20;1.05;;;;;;;;;;4971260;28;20497;-78
2023/03/26 15:18:40;;;;;;;4.88;2.72;;;;;;;;;;4979739;28;20058;-78
2023/03/26 15:21:33;;;;;;;3.75;2.08;;;;;;;;;;4968761;28;20382;-79
2023/03/26 15:24:13;;;;;;;2.00;1.42;;;;;;;;;;4977770;28;20129;-79
2023/03/26 15:27:00;;;;;;;1.75;1.13;;;;;;;;;;4989754;28;20134;-79
2023/03/26 15:29:30;;;;;;;3.63;2.70;;;;;;;;;;4988238;28;20172;-79
2023/03/26 15:32:07;;;;;;;1.30;1.20;;;;;;;;;;4974542;28;20058;-78
2023/03/26 15:34:38;;;;;;;0.82;0.73;;;;;;;;;;4986258;28;20500;-79
2023/03/26 15:37:25;;;;;;;0.95;0.73;;;;;;;;;;4979385;28;20046;-79
2023/03/26 15:40:10;;;;;;;1.15;0.82;;;;;;;;;;4961492;28;20046;-78
2023/03/26 15:42:45;;;;;;;0.95;0.80;;;;;;;;;;4979323;28;20054;-79
2023/03/26 15:45:13;;;;;;;0.90;0.90;;;;;;;;;;4989852;28;20343;-78